Claycomo, Missouri
Current Conditions -  °F | °C
As of 10:23 AM on Wednesday 26 Nov 2014 (Local Time) from KMKC Reporting Station
Overcast Overcast  
Wind Chill: 36°   Ceiling: 2900
Heat Index: 43°   Visibility: 10mi
Dew Point: 33°   Wind: 14mph
Humidity: 68%   Direction: 310°NW
Pressure: 29.98"   Gusts: 22mph
Location:  39.2065°N, 94.5176°W
Report Text: KMKC 261623Z 31012G19KT 10SM BKN029 OVC085 06/01 A2998 RMK AO2 T00610006
Loading
Personal Weather Stations






























Interactive Weather Map New forecast layout! Learn more

10-Day Weather Forecast

Advertisements
Track Severe Weather on mobile